Startpagina
METAR-TAF:

METAR-TAF

Vliegvelden :

Tsjita, Rusland

breedte: 52-05N, lengte: 113-29E, hoogte: 685 m

Actueel weer

Dit bericht is 21 minuten geleden gemaakt, om 21:30 UTC
Wind 19 kt uit het westen met uitschieters tot 29 kt
Temperatuur -23°C
Vochtigheid 39%
Druk 1011 hPa
Zicht 10 km of meer
Weinig wolken op 4600 ft
Lage stuifsneeuw

METAR: UIAA 182130Z 28010G15MPS 9999 DRSN FEW046 M23/M33 Q1011 R29/450155 NOSIG RMK QFE700/0933

Tijdstip: 06:51 (21:51 UTC)

Verwachting

Dit bericht is 1 uur en het 51 minuten geleden gemaakt, om 20:00 UTC
Verwachting geldig van 18 om 21 UTC tot 19 om 21 UTC
Wind 23 kt uit het westnoordwesten met uitschieters tot 35 kt
Zicht 10 km of meer
Gebroken wolken op 3000 ft, Cumulonimbus.
Lage stuifsneeuw
Tijdelijke
van 18 om 21 UTC tot 19 om 10 UTC
Wind 14 kt uit het westen met uitschieters tot 23 kt
Wijzigt naar
van 19 om 10 UTC tot 19 om 12 UTC
Wind 10 kt uit het westnoordwesten

TAF: UIAA 182000Z 1821/1921 29012G18MPS 9999 DRSN BKN030CB TEMPO 1821/1910 28007G12MPS BECMG 1910/1912 29005MPS

Waarnemingen en weersverwachtingen van meer dan 4000 vliegvelden (METAR en TAF).

De beschikbare stations zijn de gele en rode punten op de kaart.

Ga met uw muis naar het station om de naam te zien.

Klik dan om waarnemingen en weersverwachtingen te zien.

kaart wijzigen: klik op de groene knoppen met een zwart kruis om in te zoomen, op de groene knop met een streepje om uit te zoomen of op de groene pijlen voor aangrenzende kaarten.


METAR-TAF: